createdAt,value
2018-03-29T00:00:42.140Z,99.99
2018-03-29T00:01:42.109Z,99.99
2018-03-29T00:02:42.100Z,99.99
2018-03-29T00:03:42.111Z,99.99
2018-03-29T00:04:42.051Z,99.99
2018-03-29T00:05:42.031Z,99.99
2018-03-29T00:06:42.003Z,99.99
2018-03-29T00:07:41.994Z,99.99
2018-03-29T00:08:41.955Z,99.99
2018-03-29T00:09:41.933Z,99.99
2018-03-29T00:10:41.922Z,99.99
2018-03-29T00:11:41.895Z,99.99
2018-03-29T00:12:41.873Z,99.99
2018-03-29T00:13:41.858Z,99.99
2018-03-29T00:14:41.838Z,99.99
2018-03-29T00:15:41.808Z,99.99
2018-03-29T00:16:41.784Z,99.99
2018-03-29T00:17:41.822Z,99.99
2018-03-29T00:18:41.739Z,99.99
2018-03-29T00:19:41.785Z,99.99
2018-03-29T00:20:41.729Z,99.99
2018-03-29T00:21:41.686Z,99.99
2018-03-29T00:22:41.653Z,99.99
2018-03-29T00:23:41.642Z,99.99
2018-03-29T00:24:41.630Z,99.99
2018-03-29T00:25:41.616Z,99.99
2018-03-29T00:26:41.576Z,99.99
2018-03-29T00:27:41.548Z,99.99
2018-03-29T00:28:41.534Z,99.99
2018-03-29T00:29:41.518Z,99.99
2018-03-29T00:30:41.480Z,99.99
2018-03-29T00:31:41.465Z,99.99
2018-03-29T00:32:41.448Z,99.99
2018-03-29T00:33:41.418Z,99.99
2018-03-29T00:34:41.401Z,99.99
2018-03-29T00:35:41.405Z,99.99
2018-03-29T00:36:41.365Z,99.99
2018-03-29T00:37:41.335Z,99.99
2018-03-29T00:38:41.318Z,99.99
2018-03-29T00:39:41.302Z,99.99
2018-03-29T00:40:41.274Z,99.99
2018-03-29T00:41:41.271Z,99.99
2018-03-29T00:42:41.241Z,99.99
2018-03-29T00:43:41.220Z,99.99
2018-03-29T00:44:41.184Z,99.99
2018-03-29T00:45:41.166Z,99.99
2018-03-29T00:46:41.149Z,99.99
2018-03-29T00:47:41.160Z,99.99
2018-03-29T00:48:41.106Z,99.99
2018-03-29T00:49:41.084Z,99.99
2018-03-29T00:50:41.059Z,99.99
2018-03-29T00:51:41.057Z,99.99
2018-03-29T00:52:41.026Z,99.99
2018-03-29T00:53:41.036Z,99.99
2018-03-29T00:54:40.971Z,99.99
2018-03-29T00:55:40.958Z,99.99
2018-03-29T00:56:40.928Z,99.99
2018-03-29T00:57:40.923Z,99.99
2018-03-29T00:58:40.938Z,99.99
2018-03-29T00:59:40.866Z,99.99
2018-03-29T01:00:40.842Z,99.99
2018-03-29T01:01:40.825Z,99.99
2018-03-29T01:02:40.807Z,99.99
2018-03-29T01:03:40.802Z,99.99
2018-03-29T01:04:40.796Z,99.99
2018-03-29T01:05:40.750Z,99.99
2018-03-29T01:06:40.731Z,99.96
2018-03-29T01:07:40.694Z,99.99
2018-03-29T01:08:40.679Z,99.68
2018-03-29T01:09:40.653Z,99.99
2018-03-29T01:10:40.631Z,99.99
2018-03-29T01:11:40.626Z,99.82
2018-03-29T01:12:40.604Z,99.68
2018-03-29T01:13:40.590Z,98.82
2018-03-29T01:14:40.571Z,98.92
2018-03-29T01:15:40.535Z,98.54
2018-03-29T01:16:40.506Z,99.54
2018-03-29T01:17:40.488Z,98.73
2018-03-29T01:18:40.461Z,99.58
2018-03-29T01:19:40.446Z,99.99
2018-03-29T01:20:40.419Z,99.49
2018-03-29T01:21:40.406Z,99.99
2018-03-29T01:22:40.374Z,99.54
2018-03-29T01:23:40.394Z,99.06
2018-03-29T01:24:40.335Z,98.97
2018-03-29T01:25:40.318Z,98.78
2018-03-29T01:26:40.324Z,99.63
2018-03-29T01:27:40.270Z,99.54
2018-03-29T01:28:40.247Z,99.73
2018-03-29T01:29:40.223Z,99.82
2018-03-29T01:30:40.209Z,99.35
2018-03-29T01:31:40.193Z,99.01
2018-03-29T01:32:40.190Z,99.20
2018-03-29T01:33:40.164Z,99.26
2018-03-29T01:34:40.134Z,98.97
2018-03-29T01:35:40.096Z,98.92
2018-03-29T01:36:40.080Z,98.97
2018-03-29T01:37:40.058Z,99.35
2018-03-29T01:38:40.036Z,99.16
2018-03-29T01:39:40.067Z,98.97
2018-03-29T01:40:40.008Z,98.97
2018-03-29T01:41:39.975Z,99.30
2018-03-29T01:42:39.946Z,98.30
2018-03-29T01:43:39.938Z,98.02
2018-03-29T01:44:39.915Z,97.92
2018-03-29T01:45:39.889Z,98.49
2018-03-29T01:46:39.860Z,98.40
2018-03-29T01:47:39.851Z,98.78
2018-03-29T01:48:39.829Z,98.73
2018-03-29T01:49:39.800Z,98.59
2018-03-29T01:50:39.778Z,97.50
2018-03-29T01:51:39.789Z,97.64
2018-03-29T01:52:39.732Z,98.11
2018-03-29T01:53:39.718Z,99.16
2018-03-29T01:54:39.700Z,98.78
2018-03-29T01:55:39.677Z,98.97
2018-03-29T01:56:39.655Z,99.06
2018-03-29T01:57:39.631Z,98.68
2018-03-29T01:58:39.608Z,98.68
2018-03-29T01:59:39.590Z,98.49
2018-03-29T02:00:39.565Z,98.59
2018-03-29T02:01:39.543Z,98.87
2018-03-29T02:02:39.520Z,98.30
2018-03-29T02:03:39.517Z,98.49
2018-03-29T02:04:39.497Z,98.30
2018-03-29T02:05:39.460Z,98.30
2018-03-29T02:06:39.443Z,97.83
2018-03-29T02:07:39.446Z,97.64
2018-03-29T02:08:39.408Z,97.64
2018-03-29T02:09:39.386Z,97.92
2018-03-29T02:10:39.366Z,98.11
2018-03-29T02:11:39.331Z,97.45
2018-03-29T02:12:39.324Z,97.45
2018-03-29T02:13:39.311Z,98.02
2018-03-29T02:14:39.319Z,97.64
2018-03-29T02:15:39.249Z,98.02
2018-03-29T02:16:39.226Z,98.02
2018-03-29T02:17:39.229Z,97.64
2018-03-29T02:18:39.192Z,97.92
2018-03-29T02:19:39.171Z,98.02
2018-03-29T02:20:39.157Z,97.07
2018-03-29T02:21:39.127Z,97.36
2018-03-29T02:22:39.114Z,97.92
2018-03-29T02:23:39.127Z,97.64
2018-03-29T02:24:39.063Z,97.92
2018-03-29T02:25:39.035Z,98.02
2018-03-29T02:26:39.016Z,97.07
2018-03-29T02:27:38.992Z,96.88
2018-03-29T02:28:38.991Z,96.88
2018-03-29T02:29:38.952Z,97.55
2018-03-29T02:30:38.942Z,97.83
2018-03-29T02:31:38.917Z,97.36
2018-03-29T02:32:38.895Z,97.45
2018-03-29T02:33:38.889Z,96.97
2018-03-29T02:34:38.857Z,96.97
2018-03-29T02:35:38.841Z,97.31
2018-03-29T02:36:38.855Z,97.78
2018-03-29T02:37:38.792Z,98.25
2018-03-29T02:38:38.763Z,97.78
2018-03-29T02:39:38.745Z,97.83
2018-03-29T02:40:38.726Z,97.55
2018-03-29T02:41:38.696Z,97.36
2018-03-29T02:42:38.707Z,97.17
2018-03-29T02:43:38.686Z,97.69
2018-03-29T02:44:38.659Z,97.21
2018-03-29T02:45:38.641Z,97.83
2018-03-29T02:46:38.610Z,97.36
2018-03-29T02:47:38.631Z,96.97
2018-03-29T02:48:38.580Z,97.07
2018-03-29T02:49:38.659Z,97.26
2018-03-29T02:50:38.525Z,97.26
2018-03-29T02:51:38.486Z,97.36
2018-03-29T02:52:38.465Z,96.50
2018-03-29T02:53:38.444Z,96.88
2018-03-29T02:54:38.437Z,97.07
2018-03-29T02:55:38.403Z,96.69
2018-03-29T02:56:38.390Z,96.59
2018-03-29T02:57:38.371Z,96.64
2018-03-29T02:58:38.335Z,96.88
2018-03-29T02:59:38.338Z,97.02
2018-03-29T03:00:38.295Z,96.88
2018-03-29T03:01:38.287Z,97.45
2018-03-29T03:02:38.257Z,97.36
2018-03-29T03:03:38.228Z,97.92
2018-03-29T03:04:38.217Z,97.92
2018-03-29T03:05:38.210Z,98.02
2018-03-29T03:06:38.166Z,97.64
2018-03-29T03:07:38.293Z,98.21
2018-03-29T03:08:38.135Z,97.26
2018-03-29T03:09:38.103Z,97.64
2018-03-29T03:10:38.083Z,97.26
2018-03-29T03:11:38.078Z,97.83
2018-03-29T03:12:38.056Z,97.64
2018-03-29T03:13:38.061Z,97.26
2018-03-29T03:14:37.998Z,97.55
2018-03-29T03:15:37.991Z,97.83
2018-03-29T03:16:37.975Z,97.74
2018-03-29T03:17:37.934Z,97.64
2018-03-29T03:18:37.912Z,97.74
2018-03-29T03:19:37.922Z,97.83
2018-03-29T03:20:37.872Z,97.92
2018-03-29T03:21:37.853Z,97.26
2018-03-29T03:22:37.835Z,97.83
2018-03-29T03:23:37.820Z,97.26
2018-03-29T03:24:37.817Z,97.55
2018-03-29T03:25:37.766Z,98.02
2018-03-29T03:26:37.755Z,97.83
2018-03-29T03:27:37.758Z,97.83
2018-03-29T03:28:37.702Z,98.02
2018-03-29T03:29:37.687Z,97.45
2018-03-29T03:30:37.686Z,96.97
2018-03-29T03:31:37.659Z,97.45
2018-03-29T03:32:37.630Z,97.45
2018-03-29T03:33:37.604Z,97.83
2018-03-29T03:34:37.598Z,97.17
2018-03-29T03:35:37.634Z,96.78
2018-03-29T03:36:37.547Z,97.17
2018-03-29T03:37:37.535Z,96.59
2018-03-29T03:38:37.527Z,96.78
2018-03-29T03:39:37.478Z,97.26
2018-03-29T03:40:37.452Z,96.97
2018-03-29T03:41:37.467Z,97.17
2018-03-29T03:42:37.411Z,97.17
2018-03-29T03:43:37.387Z,97.74
2018-03-29T03:44:37.380Z,97.45
2018-03-29T03:45:37.382Z,97.55
2018-03-29T03:46:37.364Z,98.21
2018-03-29T03:47:37.304Z,96.97
2018-03-29T03:48:37.313Z,97.83
2018-03-29T03:49:37.277Z,97.55
2018-03-29T03:50:37.241Z,97.64
2018-03-29T03:51:37.222Z,97.83
2018-03-29T03:52:37.205Z,97.26
2018-03-29T03:53:37.180Z,97.17
2018-03-29T03:54:37.152Z,97.45
2018-03-29T03:55:37.132Z,97.64
2018-03-29T03:56:37.123Z,97.64
2018-03-29T03:57:37.096Z,97.92
2018-03-29T03:58:37.080Z,96.97
2018-03-29T03:59:37.077Z,96.50
2018-03-29T04:00:37.057Z,97.07
2018-03-29T04:01:37.007Z,96.88
2018-03-29T04:02:36.996Z,96.78
2018-03-29T04:03:36.996Z,96.78
2018-03-29T04:04:36.985Z,96.50
2018-03-29T04:05:36.978Z,97.45
2018-03-29T04:06:36.916Z,97.26
2018-03-29T04:07:36.899Z,97.26
2018-03-29T04:08:36.862Z,96.22
2018-03-29T04:09:36.848Z,96.22
2018-03-29T04:10:36.832Z,96.03
2018-03-29T04:11:36.927Z,95.74
2018-03-29T04:12:36.787Z,96.22
2018-03-29T04:13:36.759Z,96.22
2018-03-29T04:14:36.745Z,95.84
2018-03-29T04:15:36.732Z,96.12
2018-03-29T04:16:36.692Z,95.93
2018-03-29T04:17:36.670Z,95.46
2018-03-29T04:18:36.666Z,96.12
2018-03-29T04:19:36.633Z,95.93
2018-03-29T04:20:36.607Z,96.22
2018-03-29T04:21:36.596Z,95.93
2018-03-29T04:22:36.598Z,95.65
2018-03-29T04:23:36.560Z,95.65
2018-03-29T04:24:36.533Z,95.84
2018-03-29T04:25:36.515Z,95.27
2018-03-29T04:26:36.501Z,95.65
2018-03-29T04:27:36.517Z,95.27
2018-03-29T04:28:36.475Z,95.07
2018-03-29T04:29:36.431Z,95.93
2018-03-29T04:30:36.406Z,95.46
2018-03-29T04:31:36.379Z,95.27
2018-03-29T04:32:36.362Z,95.07
2018-03-29T04:33:36.362Z,95.07
2018-03-29T04:34:36.326Z,95.27
2018-03-29T04:35:36.321Z,95.65
2018-03-29T04:36:36.391Z,96.12
2018-03-29T04:37:36.322Z,96.59
2018-03-29T04:38:36.267Z,96.22
2018-03-29T04:39:36.219Z,96.12
2018-03-29T04:40:36.214Z,96.31
2018-03-29T04:41:36.184Z,96.22
2018-03-29T04:42:36.160Z,96.12
2018-03-29T04:43:36.156Z,95.84
2018-03-29T04:44:36.117Z,95.65
2018-03-29T04:45:36.116Z,95.17
2018-03-29T04:46:36.070Z,95.93
2018-03-29T04:47:36.073Z,95.74
2018-03-29T04:48:36.046Z,95.55
2018-03-29T04:49:36.069Z,95.46
2018-03-29T04:50:36.026Z,96.12
2018-03-29T04:51:35.978Z,96.12
2018-03-29T04:52:35.963Z,96.03
2018-03-29T04:53:35.940Z,95.93
2018-03-29T04:54:35.998Z,95.65
2018-03-29T04:55:35.934Z,95.74
2018-03-29T04:56:35.891Z,96.03
2018-03-29T04:57:35.871Z,95.84
2018-03-29T04:58:35.824Z,95.65
2018-03-29T04:59:35.802Z,95.84
2018-03-29T05:00:35.827Z,96.31
2018-03-29T05:01:35.774Z,96.03
2018-03-29T05:02:35.736Z,96.03
2018-03-29T05:03:35.721Z,96.03
2018-03-29T05:04:35.722Z,96.41
2018-03-29T05:05:35.683Z,96.22
2018-03-29T05:06:35.657Z,95.74
2018-03-29T05:07:35.677Z,95.46
2018-03-29T05:08:35.627Z,95.65
2018-03-29T05:09:35.602Z,95.65
2018-03-29T05:10:35.580Z,96.31
2018-03-29T05:11:35.558Z,96.22
2018-03-29T05:12:35.544Z,95.65
2018-03-29T05:13:35.517Z,95.84
2018-03-29T05:14:35.490Z,96.41
2018-03-29T05:15:35.470Z,96.31
2018-03-29T05:16:35.456Z,96.41
2018-03-29T05:17:35.474Z,96.22
2018-03-29T05:18:35.440Z,96.36
2018-03-29T05:19:35.407Z,96.03
2018-03-29T05:20:35.367Z,95.74
2018-03-29T05:21:35.376Z,95.74
2018-03-29T05:22:35.331Z,95.84
2018-03-29T05:23:35.423Z,96.22
2018-03-29T05:24:35.283Z,96.83
2018-03-29T05:25:35.274Z,96.59
2018-03-29T05:26:35.265Z,96.97
2018-03-29T05:27:35.231Z,96.03
2018-03-29T05:28:35.215Z,96.26
2018-03-29T05:29:35.217Z,96.26
2018-03-29T05:30:35.193Z,96.64
2018-03-29T05:31:35.158Z,96.36
2018-03-29T05:32:35.156Z,96.45
2018-03-29T05:33:35.129Z,96.45
2018-03-29T05:34:35.080Z,96.45
2018-03-29T05:35:35.062Z,96.64
2018-03-29T05:36:35.057Z,96.26
2018-03-29T05:37:35.060Z,95.89
2018-03-29T05:38:34.996Z,95.79
2018-03-29T05:39:35.025Z,94.93
2018-03-29T05:40:34.965Z,95.12
2018-03-29T05:41:34.968Z,95.03
2018-03-29T05:42:34.913Z,95.89
2018-03-29T05:43:34.900Z,95.12
2018-03-29T05:44:34.938Z,95.51
2018-03-29T05:45:34.904Z,94.93
2018-03-29T05:46:34.851Z,94.84
2018-03-29T05:47:34.834Z,94.93
2018-03-29T05:48:34.810Z,94.37
2018-03-29T05:49:34.770Z,94.84
2018-03-29T05:50:34.752Z,94.74
2018-03-29T05:51:34.758Z,94.93
2018-03-29T05:52:34.720Z,95.31
2018-03-29T05:53:34.682Z,95.03
2018-03-29T05:54:34.718Z,95.41
2018-03-29T05:55:34.696Z,95.31
2018-03-29T05:56:34.653Z,95.60
2018-03-29T05:57:34.641Z,95.60
2018-03-29T05:58:34.621Z,94.93
2018-03-29T05:59:34.572Z,95.22
2018-03-29T06:00:34.572Z,95.12
2018-03-29T06:01:34.537Z,95.12
2018-03-29T06:02:34.511Z,94.93
2018-03-29T06:03:34.482Z,95.03
2018-03-29T06:04:34.452Z,95.22
2018-03-29T06:05:34.452Z,95.41
2018-03-29T06:06:34.424Z,95.60
2018-03-29T06:07:34.476Z,95.98
2018-03-29T06:08:34.404Z,95.70
2018-03-29T06:09:34.362Z,95.22
2018-03-29T06:10:34.380Z,95.60
2018-03-29T06:11:34.315Z,95.12
2018-03-29T06:12:34.324Z,95.03
2018-03-29T06:13:34.318Z,94.65
2018-03-29T06:14:34.258Z,94.46
2018-03-29T06:15:34.253Z,94.56
2018-03-29T06:16:34.235Z,94.93
2018-03-29T06:17:34.230Z,94.56
2018-03-29T06:18:34.178Z,94.74
2018-03-29T06:19:34.147Z,94.74
2018-03-29T06:20:34.156Z,94.37
2018-03-29T06:21:34.111Z,94.46
2018-03-29T06:22:34.103Z,94.84
2018-03-29T06:23:34.090Z,94.37
2018-03-29T06:24:34.051Z,94.65
2018-03-29T06:25:34.043Z,94.93
2018-03-29T06:26:34.025Z,94.18
2018-03-29T06:27:34.002Z,94.46
2018-03-29T06:28:34.114Z,94.46
2018-03-29T06:29:33.952Z,93.89
2018-03-29T06:30:33.948Z,93.41
2018-03-29T06:31:33.944Z,93.41
2018-03-29T06:32:33.953Z,93.41
2018-03-29T06:33:33.894Z,93.46
2018-03-29T06:34:33.843Z,93.84
2018-03-29T06:35:33.835Z,93.46
2018-03-29T06:36:33.834Z,93.23
2018-03-29T06:37:33.803Z,93.27
2018-03-29T06:38:33.806Z,94.23
2018-03-29T06:39:33.762Z,93.27
2018-03-29T06:40:33.739Z,93.18
2018-03-29T06:41:33.709Z,92.85
2018-03-29T06:42:33.686Z,93.13
2018-03-29T06:43:33.716Z,92.80
2018-03-29T06:44:33.678Z,93.08
2018-03-29T06:45:33.632Z,93.08
2018-03-29T06:46:33.609Z,92.99
2018-03-29T06:47:33.594Z,93.08
2018-03-29T06:48:33.598Z,92.90
2018-03-29T06:49:33.578Z,92.71
2018-03-29T06:50:33.540Z,92.99
2018-03-29T06:51:33.521Z,92.99
2018-03-29T06:52:33.571Z,92.71
2018-03-29T06:53:33.465Z,92.13
2018-03-29T06:54:33.450Z,91.75
2018-03-29T06:55:33.447Z,91.75
2018-03-29T06:56:33.440Z,91.56
2018-03-29T06:57:33.395Z,91.56
2018-03-29T06:58:33.384Z,91.19
2018-03-29T06:59:33.354Z,91.56
2018-03-29T07:00:33.342Z,92.13
2018-03-29T07:01:33.309Z,92.32
2018-03-29T07:02:33.286Z,92.32
2018-03-29T07:03:33.286Z,92.85
2018-03-29T07:04:34.009Z,92.80
2018-03-29T07:05:33.241Z,93.56
2018-03-29T07:06:33.227Z,92.90
2018-03-29T07:07:33.231Z,92.66
2018-03-29T07:08:33.326Z,93.46
2018-03-29T07:09:33.157Z,93.75
2018-03-29T07:10:33.121Z,93.46
2018-03-29T07:11:33.134Z,93.37
2018-03-29T07:12:33.090Z,93.60
2018-03-29T07:13:33.173Z,93.65
2018-03-29T07:14:33.090Z,93.27
2018-03-29T07:15:33.023Z,93.46
2018-03-29T07:16:33.065Z,93.18
2018-03-29T07:17:33.032Z,92.61
2018-03-29T07:18:33.022Z,93.08
2018-03-29T07:19:32.962Z,92.61
2018-03-29T07:20:32.963Z,92.23
2018-03-29T07:21:32.931Z,92.23
2018-03-29T07:22:32.929Z,91.75
2018-03-29T07:23:32.877Z,92.51
2018-03-29T07:24:32.862Z,91.75
2018-03-29T07:25:32.847Z,91.28
2018-03-29T07:26:32.835Z,90.99
2018-03-29T07:27:32.795Z,90.99
2018-03-29T07:28:32.786Z,91.09
2018-03-29T07:29:32.770Z,90.80
2018-03-29T07:30:32.812Z,90.90
2018-03-29T07:31:32.720Z,91.09
2018-03-29T07:32:32.703Z,90.42
2018-03-29T07:33:32.706Z,90.42
2018-03-29T07:34:32.658Z,90.80
2018-03-29T07:35:32.641Z,90.80
2018-03-29T07:36:32.668Z,90.61
2018-03-29T07:37:32.612Z,91.09
2018-03-29T07:38:32.589Z,90.99
2018-03-29T07:39:32.567Z,91.19
2018-03-29T07:40:32.553Z,91.19
2018-03-29T07:41:32.532Z,90.61
2018-03-29T07:42:32.543Z,90.71
2018-03-29T07:43:32.563Z,90.90
2018-03-29T07:44:32.484Z,90.14
2018-03-29T07:45:32.462Z,91.04
2018-03-29T07:46:32.449Z,90.71
2018-03-29T07:47:32.404Z,89.76
2018-03-29T07:48:32.382Z,90.14
2018-03-29T07:49:32.378Z,91.04
2018-03-29T07:50:32.347Z,90.94
2018-03-29T07:51:32.367Z,90.37
2018-03-29T07:52:32.328Z,90.19
2018-03-29T07:53:32.291Z,90.94
2018-03-29T07:54:32.329Z,89.42
2018-03-29T07:55:32.259Z,88.28
2018-03-29T07:56:32.260Z,88.00
2018-03-29T07:57:32.218Z,88.00
2018-03-29T07:58:32.219Z,88.76
2018-03-29T07:59:32.161Z,88.38
2018-03-29T08:00:32.155Z,88.57
2018-03-29T08:01:32.156Z,88.38
2018-03-29T08:02:32.168Z,88.28
2018-03-29T08:03:32.128Z,88.09
2018-03-29T08:04:32.121Z,88.19
2018-03-29T08:05:32.067Z,88.19
2018-03-29T08:06:32.055Z,88.00
2018-03-29T08:07:32.045Z,88.19
2018-03-29T08:08:32.012Z,88.19
2018-03-29T08:09:31.993Z,87.81
2018-03-29T08:10:31.983Z,87.62
2018-03-29T08:11:31.953Z,87.43
2018-03-29T08:12:32.013Z,87.19
2018-03-29T08:13:31.930Z,86.99
2018-03-29T08:14:31.922Z,87.19
2018-03-29T08:15:31.920Z,87.38
2018-03-29T08:16:32.049Z,87.28
2018-03-29T08:17:31.867Z,86.43
2018-03-29T08:18:31.849Z,86.43
2018-03-29T08:19:31.798Z,86.43
2018-03-29T08:20:31.811Z,85.66
2018-03-29T08:21:32.629Z,85.76
2018-03-29T08:22:31.777Z,86.05
2018-03-29T08:23:31.735Z,86.14
2018-03-29T08:24:31.766Z,86.14
2018-03-29T08:25:31.723Z,85.95
2018-03-29T08:26:31.722Z,85.95
2018-03-29T08:27:31.642Z,85.28
2018-03-29T08:28:31.637Z,85.95
2018-03-29T08:29:31.603Z,86.33
2018-03-29T08:30:31.583Z,85.95
2018-03-29T08:31:31.564Z,85.47
2018-03-29T08:32:31.563Z,85.38
2018-03-29T08:33:31.631Z,85.66
2018-03-29T08:34:31.532Z,85.04
2018-03-29T08:35:31.496Z,84.56
2018-03-29T08:36:31.513Z,84.33
2018-03-29T08:37:31.452Z,83.76
2018-03-29T08:38:31.431Z,84.05
2018-03-29T08:39:31.443Z,84.14
2018-03-29T08:40:31.419Z,84.52
2018-03-29T08:41:31.394Z,84.05
2018-03-29T08:42:31.363Z,84.72
2018-03-29T08:43:31.339Z,83.95
2018-03-29T08:44:31.343Z,83.81
2018-03-29T08:45:31.323Z,82.86
2018-03-29T08:46:31.304Z,82.76
2018-03-29T08:47:31.298Z,83.04
2018-03-29T08:48:31.305Z,82.38
2018-03-29T08:49:31.255Z,82.38
2018-03-29T08:50:31.230Z,81.81
2018-03-29T08:51:31.202Z,81.62
2018-03-29T08:52:31.181Z,82.19
2018-03-29T08:53:31.201Z,81.62
2018-03-29T08:54:31.164Z,80.71
2018-03-29T08:55:31.244Z,80.29
2018-03-29T08:56:31.200Z,80.76
2018-03-29T08:57:31.092Z,81.33
2018-03-29T08:58:31.087Z,81.43
2018-03-29T08:59:31.062Z,81.24
2018-03-29T09:00:31.051Z,81.33
2018-03-29T09:01:31.122Z,81.43
2018-03-29T09:02:31.070Z,81.33
2018-03-29T09:03:31.038Z,82.04
2018-03-29T09:04:31.011Z,81.85
2018-03-29T09:05:30.943Z,80.33
2018-03-29T09:06:30.927Z,79.75
2018-03-29T09:07:30.910Z,80.13
2018-03-29T09:08:30.900Z,79.28
2018-03-29T09:09:30.909Z,78.90
2018-03-29T09:10:30.866Z,78.90
2018-03-29T09:11:30.881Z,78.90
2018-03-29T09:12:30.885Z,78.33
2018-03-29T09:13:30.829Z,79.09
2018-03-29T09:14:30.873Z,78.99
2018-03-29T09:15:30.791Z,78.52
2018-03-29T09:16:30.760Z,78.71
2018-03-29T09:17:30.772Z,78.61
2018-03-29T09:18:30.725Z,78.80
2018-03-29T09:19:30.706Z,78.71
2018-03-29T09:20:30.702Z,78.80
2018-03-29T09:21:30.702Z,78.99
2018-03-29T09:22:30.645Z,79.09
2018-03-29T09:23:30.678Z,79.47
2018-03-29T09:24:30.626Z,78.99
2018-03-29T09:25:30.635Z,78.42
2018-03-29T09:26:30.586Z,77.56
2018-03-29T09:27:30.576Z,77.76
2018-03-29T09:28:30.579Z,78.04
2018-03-29T09:29:30.555Z,77.03
2018-03-29T09:30:30.537Z,77.32
2018-03-29T09:31:30.488Z,77.51
2018-03-29T09:32:30.593Z,77.13
2018-03-29T09:33:30.451Z,77.70
2018-03-29T09:34:30.479Z,77.76
2018-03-29T09:35:30.413Z,78.23
2018-03-29T09:36:30.461Z,77.76
2018-03-29T09:37:30.435Z,78.42
2018-03-29T09:38:30.386Z,79.22
2018-03-29T09:39:30.384Z,78.94
2018-03-29T09:40:30.371Z,78.27
2018-03-29T09:41:30.330Z,77.03
2018-03-29T09:42:30.318Z,76.65
2018-03-29T09:43:30.274Z,76.37
2018-03-29T09:44:30.290Z,77.13
2018-03-29T09:45:30.302Z,77.22
2018-03-29T09:46:30.231Z,77.32
2018-03-29T09:47:30.216Z,77.61
2018-03-29T09:48:30.194Z,77.13
2018-03-29T09:49:30.182Z,76.46
2018-03-29T09:50:30.162Z,76.65
2018-03-29T09:51:30.172Z,76.75
2018-03-29T09:52:30.126Z,78.17
2018-03-29T09:53:30.106Z,78.75
2018-03-29T09:54:30.104Z,78.08
2018-03-29T09:55:30.083Z,77.98
2018-03-29T09:56:30.169Z,78.14
2018-03-29T09:57:30.038Z,77.95
2018-03-29T09:58:30.049Z,78.04
2018-03-29T09:59:30.040Z,78.14
2018-03-29T10:00:30.842Z,78.08
2018-03-29T10:01:29.974Z,77.70
2018-03-29T10:02:29.989Z,76.84
2018-03-29T10:03:29.938Z,76.37
2018-03-29T10:04:29.920Z,76.46
2018-03-29T10:05:29.904Z,76.27
2018-03-29T10:06:29.912Z,76.75
2018-03-29T10:07:29.888Z,75.70
2018-03-29T10:08:29.869Z,74.88
2018-03-29T10:09:29.843Z,74.40
2018-03-29T10:10:29.827Z,74.40
2018-03-29T10:11:29.855Z,73.93
2018-03-29T10:12:29.834Z,73.65
2018-03-29T10:13:29.774Z,73.65
2018-03-29T10:14:29.938Z,73.74
2018-03-29T10:15:29.751Z,73.99
2018-03-29T10:16:29.736Z,74.02
2018-03-29T10:17:29.705Z,74.79
2018-03-29T10:18:29.684Z,74.21
2018-03-29T10:19:29.721Z,74.02
2018-03-29T10:20:29.664Z,73.45
2018-03-29T10:21:29.646Z,73.26
2018-03-29T10:22:29.628Z,73.26
2018-03-29T10:23:29.640Z,72.69
2018-03-29T10:24:29.594Z,72.88
2018-03-29T10:25:29.569Z,73.36
2018-03-29T10:26:29.652Z,73.45
2018-03-29T10:27:29.536Z,73.45
2018-03-29T10:28:29.537Z,73.93
2018-03-29T10:29:29.536Z,74.60
2018-03-29T10:30:30.361Z,74.46
2018-03-29T10:31:29.463Z,74.12
2018-03-29T10:32:29.458Z,74.08
2018-03-29T10:33:29.429Z,73.45
2018-03-29T10:34:29.565Z,72.41
2018-03-29T10:35:29.431Z,71.36
2018-03-29T10:36:29.390Z,71.83
2018-03-29T10:37:29.390Z,71.64
2018-03-29T10:38:29.362Z,71.26
2018-03-29T10:39:29.359Z,71.64
2018-03-29T10:40:29.326Z,72.50
2018-03-29T10:41:29.319Z,72.37
2018-03-29T10:42:29.297Z,73.03
2018-03-29T10:43:29.264Z,73.22
2018-03-29T10:44:29.284Z,73.41
2018-03-29T10:45:29.249Z,73.22
2018-03-29T10:46:29.216Z,73.41
2018-03-29T10:47:29.209Z,73.03
2018-03-29T10:48:29.188Z,73.80
2018-03-29T10:49:29.182Z,74.18
2018-03-29T10:50:29.163Z,73.99
2018-03-29T10:51:29.142Z,73.32
2018-03-29T10:52:29.147Z,73.22
2018-03-29T10:53:29.150Z,73.74
2018-03-29T10:54:29.101Z,72.50
2018-03-29T10:55:29.089Z,72.69
2018-03-29T10:56:29.148Z,72.97
2018-03-29T10:57:29.060Z,72.31
2018-03-29T10:58:29.034Z,71.07
2018-03-29T10:59:28.990Z,71.11
2018-03-29T11:00:28.984Z,70.63
2018-03-29T11:01:28.986Z,70.88
2018-03-29T11:02:28.950Z,71.73
2018-03-29T11:03:28.988Z,72.50
2018-03-29T11:04:30.588Z,72.21
2018-03-29T11:05:28.898Z,72.02
2018-03-29T11:06:28.887Z,72.21
2018-03-29T11:07:28.926Z,72.50
2018-03-29T11:08:28.889Z,71.73
2018-03-29T11:09:28.876Z,72.60
2018-03-29T11:10:28.818Z,72.31
2018-03-29T11:11:28.820Z,72.41
2018-03-29T11:12:28.837Z,72.56
2018-03-29T11:13:28.800Z,71.93
2018-03-29T11:14:28.814Z,71.93
2018-03-29T11:15:28.732Z,71.73
2018-03-29T11:16:28.896Z,71.64
2018-03-29T11:17:28.724Z,71.64
2018-03-29T11:18:28.697Z,71.36
2018-03-29T11:19:28.702Z,71.26
2018-03-29T11:20:28.667Z,70.50
2018-03-29T11:21:28.673Z,70.21
2018-03-29T11:22:28.629Z,70.06
2018-03-29T11:23:28.618Z,69.39
2018-03-29T11:24:28.575Z,68.91
2018-03-29T11:25:30.211Z,69.10
2018-03-29T11:26:28.638Z,69.96
2018-03-29T11:27:28.619Z,69.48
2018-03-29T11:28:28.523Z,69.48
2018-03-29T11:29:28.557Z,69.96
2018-03-29T11:30:28.499Z,69.58
2018-03-29T11:31:28.508Z,68.72
2018-03-29T11:32:28.507Z,68.24
2018-03-29T11:33:28.447Z,67.86
2018-03-29T11:34:28.425Z,67.39
2018-03-29T11:35:28.408Z,67.58
2018-03-29T11:36:28.399Z,67.86
2018-03-29T11:37:28.404Z,67.39
2018-03-29T11:38:28.352Z,67.58
2018-03-29T11:39:28.341Z,67.29
2018-03-29T11:40:28.335Z,67.29
2018-03-29T11:41:28.315Z,67.58
2018-03-29T11:42:28.310Z,67.20
2018-03-29T11:43:28.267Z,67.00
2018-03-29T11:44:28.257Z,66.91
2018-03-29T11:45:28.239Z,67.58
2018-03-29T11:46:28.218Z,66.91
2018-03-29T11:47:28.206Z,66.91
2018-03-29T11:48:28.189Z,67.48
2018-03-29T11:49:28.167Z,67.58
2018-03-29T11:50:28.158Z,67.68
2018-03-29T11:51:28.144Z,67.48
2018-03-29T11:52:28.141Z,67.39
2018-03-29T11:53:28.111Z,67.04
2018-03-29T11:54:28.171Z,66.75
2018-03-29T11:55:28.114Z,66.47
2018-03-29T11:56:28.083Z,65.70
2018-03-29T11:57:28.067Z,65.04
2018-03-29T11:58:28.023Z,65.23
2018-03-29T11:59:28.030Z,65.23
2018-03-29T12:00:28.002Z,65.13
2018-03-29T12:01:27.973Z,64.37
2018-03-29T12:02:27.969Z,64.28
2018-03-29T12:03:28.049Z,64.09
2018-03-29T12:04:27.960Z,65.13
2018-03-29T12:05:27.914Z,64.85
2018-03-29T12:06:27.904Z,65.13
2018-03-29T12:07:27.897Z,66.28
2018-03-29T12:08:27.925Z,66.09
2018-03-29T12:09:27.887Z,65.99
2018-03-29T12:10:27.859Z,65.70
2018-03-29T12:11:27.884Z,64.94
2018-03-29T12:12:27.896Z,63.89
2018-03-29T12:13:27.813Z,63.60
2018-03-29T12:14:27.775Z,63.13
2018-03-29T12:15:27.869Z,64.02
2018-03-29T12:16:27.775Z,64.18
2018-03-29T12:17:27.730Z,63.60
2018-03-29T12:18:27.769Z,62.75
2018-03-29T12:19:27.721Z,62.65
2018-03-29T12:20:27.682Z,63.51
2018-03-29T12:21:27.679Z,62.78
2018-03-29T12:22:27.634Z,62.49
2018-03-29T12:23:27.660Z,61.54
2018-03-29T12:24:27.649Z,62.02
2018-03-29T12:25:27.650Z,62.02
2018-03-29T12:26:27.626Z,61.83
2018-03-29T12:27:27.590Z,61.73
2018-03-29T12:28:27.572Z,60.87
2018-03-29T12:29:27.552Z,60.87
2018-03-29T12:30:27.520Z,60.49
2018-03-29T12:31:27.493Z,60.58
2018-03-29T12:32:27.500Z,60.30
2018-03-29T12:33:27.499Z,60.39
2018-03-29T12:34:27.458Z,60.39
2018-03-29T12:35:27.509Z,60.49
2018-03-29T12:36:27.427Z,60.02
2018-03-29T12:37:27.411Z,61.35
2018-03-29T12:38:27.403Z,61.19
2018-03-29T12:39:29.140Z,60.04
2018-03-29T12:40:27.390Z,60.33
2018-03-29T12:41:27.346Z,59.66
2018-03-29T12:42:27.330Z,59.82
2018-03-29T12:43:27.378Z,58.97
2018-03-29T12:44:27.380Z,59.16
2018-03-29T12:45:27.303Z,59.99
2018-03-29T12:46:27.259Z,60.49
2018-03-29T12:47:27.278Z,59.82
2018-03-29T12:48:27.239Z,59.53
2018-03-29T12:49:27.303Z,59.73
2018-03-29T12:50:27.436Z,59.34
2018-03-29T12:51:27.213Z,61.44
2018-03-29T12:52:27.209Z,62.11